createdAt,value
2023-05-13T00:03:02.488Z,4.80
2023-05-13T00:13:08.450Z,5.20
2023-05-13T00:23:14.707Z,4.00
2023-05-13T00:33:20.469Z,5.60
2023-05-13T00:43:26.360Z,4.40
2023-05-13T00:53:33.444Z,4.10
2023-05-13T01:03:45.852Z,4.40
2023-05-13T01:13:58.250Z,3.50
2023-05-13T01:24:04.133Z,3.40
2023-05-13T01:34:11.583Z,3.30
2023-05-13T01:44:17.159Z,5.20
2023-05-13T01:54:22.859Z,3.40
2023-05-13T02:04:29.380Z,4.00
2023-05-13T02:14:35.186Z,3.40
2023-05-13T02:24:41.204Z,3.90
2023-05-13T02:34:46.986Z,3.70
2023-05-13T02:44:52.810Z,4.00
2023-05-13T02:54:58.837Z,4.30
2023-05-13T03:05:04.951Z,4.30
2023-05-13T03:15:13.013Z,3.40
2023-05-13T03:35:23.245Z,3.80
2023-05-13T03:45:29.077Z,3.30
2023-05-13T03:55:35.110Z,3.10
2023-05-13T04:05:41.056Z,3.60
2023-05-13T04:15:46.971Z,3.70
2023-05-13T04:25:54.578Z,3.80
2023-05-13T04:36:00.411Z,3.10
2023-05-13T04:46:06.370Z,2.50
2023-05-13T04:56:12.433Z,3.00
2023-05-13T05:06:18.340Z,3.30
2023-05-13T05:16:24.857Z,2.60
2023-05-13T05:26:30.748Z,2.60
2023-05-13T05:36:38.207Z,1.90
2023-05-13T05:46:44.310Z,1.70
2023-05-13T05:56:49.971Z,2.10
2023-05-13T06:06:55.873Z,1.80
2023-05-13T06:17:01.734Z,1.70
2023-05-13T06:27:08.156Z,1.80
2023-05-13T06:37:14.273Z,2.30
2023-05-13T06:47:21.209Z,1.90
2023-05-13T06:57:41.313Z,2.00
2023-05-13T07:07:48.050Z,1.90
2023-05-13T07:17:53.851Z,1.40
2023-05-13T07:27:59.966Z,1.80
2023-05-13T07:38:05.822Z,1.90
2023-05-13T07:48:11.566Z,1.60
2023-05-13T07:58:18.638Z,1.60
2023-05-13T08:08:24.267Z,1.40
2023-05-13T08:18:30.312Z,2.00
2023-05-13T08:28:36.125Z,1.90
2023-05-13T08:38:42.832Z,1.70
2023-05-13T08:48:49.390Z,2.00
2023-05-13T08:58:55.222Z,1.80
2023-05-13T09:09:03.024Z,2.00
2023-05-13T09:19:11.526Z,2.60
2023-05-13T09:29:25.736Z,2.00
2023-05-13T09:39:33.902Z,1.90
2023-05-13T09:49:41.786Z,1.40
2023-05-13T09:59:47.596Z,1.60
2023-05-13T10:09:55.416Z,1.30
2023-05-13T10:30:10.431Z,1.40
2023-05-13T10:40:50.948Z,1.40
2023-05-13T10:50:58.938Z,1.50
2023-05-13T11:01:19.445Z,1.80
2023-05-13T11:11:33.266Z,1.30
2023-05-13T11:21:41.351Z,3.00
2023-05-13T11:31:48.778Z,2.10
2023-05-13T11:41:57.429Z,1.50
2023-05-13T11:52:04.092Z,1.50
2023-05-13T12:02:09.789Z,1.70
2023-05-13T12:12:16.585Z,1.60
2023-05-13T12:22:25.335Z,2.30
2023-05-13T12:32:31.027Z,2.50
2023-05-13T12:42:37.655Z,2.00
2023-05-13T12:52:43.359Z,2.20
2023-05-13T13:02:49.174Z,2.30
2023-05-13T13:12:55.069Z,2.50
2023-05-13T13:23:02.144Z,1.50
2023-05-13T13:33:08.462Z,2.70
2023-05-13T13:53:19.811Z,2.00
2023-05-13T14:03:26.104Z,1.90
2023-05-13T14:13:32.064Z,1.50
2023-05-13T14:23:38.599Z,1.70
2023-05-13T14:33:44.363Z,1.90
2023-05-13T14:43:50.163Z,2.10
2023-05-13T14:53:55.865Z,1.80
2023-05-13T15:04:01.667Z,2.20
2023-05-13T15:14:07.571Z,2.00
2023-05-13T15:24:13.719Z,1.80
2023-05-13T15:34:19.461Z,1.70
2023-05-13T15:44:25.121Z,2.30
2023-05-13T15:54:31.101Z,1.60
2023-05-13T16:04:36.986Z,1.60
2023-05-13T16:14:42.891Z,2.00
2023-05-13T16:24:48.609Z,2.00
2023-05-13T16:34:55.057Z,2.50
2023-05-13T16:45:00.810Z,2.10
2023-05-13T16:55:07.820Z,1.80
2023-05-13T17:05:13.662Z,2.20
2023-05-13T17:15:19.712Z,2.40
2023-05-13T17:25:25.531Z,2.50
2023-05-13T17:35:31.380Z,2.70
2023-05-13T17:45:37.241Z,2.70
2023-05-13T17:55:43.097Z,4.00
2023-05-13T18:05:48.996Z,2.90
2023-05-13T18:15:54.915Z,5.60
2023-05-13T18:26:01.013Z,3.40
2023-05-13T18:36:09.851Z,4.80
2023-05-13T18:46:15.914Z,4.80
2023-05-13T18:56:21.794Z,7.90
2023-05-13T19:06:27.766Z,7.50
2023-05-13T19:16:33.742Z,7.10
2023-05-13T19:26:39.702Z,9.10
2023-05-13T19:36:47.239Z,9.80
2023-05-13T19:46:53.304Z,11.50
2023-05-13T19:56:59.626Z,11.30
2023-05-13T20:07:06.930Z,18.50
2023-05-13T20:17:16.015Z,19.40
2023-05-13T20:27:21.849Z,13.50
2023-05-13T20:37:28.556Z,16.00
2023-05-13T20:47:34.183Z,17.50
2023-05-13T20:57:40.503Z,17.00
2023-05-13T21:07:46.261Z,18.70
2023-05-13T21:17:52.224Z,15.70
2023-05-13T21:27:58.065Z,16.00
2023-05-13T21:38:11.396Z,16.20
2023-05-13T21:48:19.267Z,16.20
2023-05-13T21:58:25.197Z,15.40
2023-05-13T22:08:31.478Z,15.80
2023-05-13T22:18:37.579Z,17.40
2023-05-13T22:28:44.028Z,21.90
2023-05-13T22:38:49.810Z,19.20
2023-05-13T22:48:55.682Z,18.10
2023-05-13T22:59:01.362Z,17.80
2023-05-13T23:09:07.758Z,19.00
2023-05-13T23:19:13.868Z,17.10
2023-05-13T23:29:19.956Z,13.70
2023-05-13T23:39:25.686Z,17.50
2023-05-13T23:49:31.641Z,16.90
2023-05-13T23:59:37.489Z,17.10
